sensor_id;sensor_type;location;lat;lon;timestamp;temperature;humidity
12289;DHT22;6207;49.308;7.336;2023-02-28T00:00:52;-1.40;99.90
12289;DHT22;6207;49.308;7.336;2023-02-28T00:03:19;-1.50;99.90
12289;DHT22;6207;49.308;7.336;2023-02-28T00:05:46;-1.40;99.90
12289;DHT22;6207;49.308;7.336;2023-02-28T00:08:13;-1.50;99.90
12289;DHT22;6207;49.308;7.336;2023-02-28T00:10:39;-1.30;99.90
12289;DHT22;6207;49.308;7.336;2023-02-28T00:13:06;-1.30;99.90
12289;DHT22;6207;49.308;7.336;2023-02-28T00:15:33;-1.40;99.90
12289;DHT22;6207;49.308;7.336;2023-02-28T00:18:02;-1.40;99.90
12289;DHT22;6207;49.308;7.336;2023-02-28T00:20:29;-1.40;99.90
12289;DHT22;6207;49.308;7.336;2023-02-28T00:22:56;-1.50;99.90
12289;DHT22;6207;49.308;7.336;2023-02-28T00:25:24;-1.50;99.90
12289;DHT22;6207;49.308;7.336;2023-02-28T00:27:51;-1.50;99.90
12289;DHT22;6207;49.308;7.336;2023-02-28T00:30:22;-1.50;99.90
12289;DHT22;6207;49.308;7.336;2023-02-28T00:32:50;-1.50;99.90
12289;DHT22;6207;49.308;7.336;2023-02-28T00:35:17;-1.60;99.90
12289;DHT22;6207;49.308;7.336;2023-02-28T00:37:44;-1.70;99.90
12289;DHT22;6207;49.308;7.336;2023-02-28T00:40:11;-1.70;99.90
12289;DHT22;6207;49.308;7.336;2023-02-28T00:42:39;-1.50;99.90
12289;DHT22;6207;49.308;7.336;2023-02-28T00:45:07;-1.50;99.90
12289;DHT22;6207;49.308;7.336;2023-02-28T00:47:35;-1.50;99.90
12289;DHT22;6207;49.308;7.336;2023-02-28T00:50:02;-1.50;99.90
12289;DHT22;6207;49.308;7.336;2023-02-28T00:52:29;-1.50;99.90
12289;DHT22;6207;49.308;7.336;2023-02-28T00:54:56;-1.60;99.90
12289;DHT22;6207;49.308;7.336;2023-02-28T00:57:23;-1.50;99.90
12289;DHT22;6207;49.308;7.336;2023-02-28T00:59:49;-1.50;99.90
12289;DHT22;6207;49.308;7.336;2023-02-28T01:02:16;-1.60;99.90
12289;DHT22;6207;49.308;7.336;2023-02-28T01:04:44;-1.60;99.90
12289;DHT22;6207;49.308;7.336;2023-02-28T01:07:11;-1.60;99.90
12289;DHT22;6207;49.308;7.336;2023-02-28T01:09:37;-1.80;99.90
12289;DHT22;6207;49.308;7.336;2023-02-28T01:12:04;-1.70;99.90
12289;DHT22;6207;49.308;7.336;2023-02-28T01:14:31;-1.80;99.90
12289;DHT22;6207;49.308;7.336;2023-02-28T01:16:57;-1.90;99.90
12289;DHT22;6207;49.308;7.336;2023-02-28T01:19:24;-1.80;99.90
12289;DHT22;6207;49.308;7.336;2023-02-28T01:21:51;-1.70;99.90
12289;DHT22;6207;49.308;7.336;2023-02-28T01:24:18;-1.90;99.90
12289;DHT22;6207;49.308;7.336;2023-02-28T01:26:45;-1.90;99.90
12289;DHT22;6207;49.308;7.336;2023-02-28T01:29:11;-1.90;99.90
12289;DHT22;6207;49.308;7.336;2023-02-28T01:31:38;-2.00;99.90
12289;DHT22;6207;49.308;7.336;2023-02-28T01:34:05;-2.00;99.90
12289;DHT22;6207;49.308;7.336;2023-02-28T01:36:32;-2.00;99.90
12289;DHT22;6207;49.308;7.336;2023-02-28T01:38:58;-2.00;99.90
12289;DHT22;6207;49.308;7.336;2023-02-28T01:41:27;-2.00;99.90
12289;DHT22;6207;49.308;7.336;2023-02-28T01:43:58;-2.10;99.90
12289;DHT22;6207;49.308;7.336;2023-02-28T01:46:25;-2.00;99.90
12289;DHT22;6207;49.308;7.336;2023-02-28T01:51:41;-2.00;99.90
12289;DHT22;6207;49.308;7.336;2023-02-28T01:54:15;-2.00;99.90
12289;DHT22;6207;49.308;7.336;2023-02-28T01:56:47;-2.00;99.90
12289;DHT22;6207;49.308;7.336;2023-02-28T01:59:25;-2.10;99.90
12289;DHT22;6207;49.308;7.336;2023-02-28T02:01:54;-2.10;99.90
12289;DHT22;6207;49.308;7.336;2023-02-28T02:04:23;-2.10;99.90
12289;DHT22;6207;49.308;7.336;2023-02-28T02:06:52;-2.10;99.90
12289;DHT22;6207;49.308;7.336;2023-02-28T02:09:19;-1.70;99.90
12289;DHT22;6207;49.308;7.336;2023-02-28T02:11:46;-1.90;99.90
12289;DHT22;6207;49.308;7.336;2023-02-28T02:14:42;-2.20;99.90
12289;DHT22;6207;49.308;7.336;2023-02-28T02:25:40;-2.10;99.90
12289;DHT22;6207;49.308;7.336;2023-02-28T02:34:06;-2.20;99.90
12289;DHT22;6207;49.308;7.336;2023-02-28T02:36:59;-2.30;99.90
12289;DHT22;6207;49.308;7.336;2023-02-28T02:39:34;-2.20;99.90
12289;DHT22;6207;49.308;7.336;2023-02-28T02:42:12;-2.00;99.90
12289;DHT22;6207;49.308;7.336;2023-02-28T02:44:44;-2.00;99.90
12289;DHT22;6207;49.308;7.336;2023-02-28T02:47:17;-2.30;99.90
12289;DHT22;6207;49.308;7.336;2023-02-28T02:49:49;-2.00;99.90
12289;DHT22;6207;49.308;7.336;2023-02-28T02:52:20;-2.30;99.90
12289;DHT22;6207;49.308;7.336;2023-02-28T02:54:48;-2.30;99.90
12289;DHT22;6207;49.308;7.336;2023-02-28T02:57:24;-2.00;99.90
12289;DHT22;6207;49.308;7.336;2023-02-28T02:59:53;-1.70;99.90
12289;DHT22;6207;49.308;7.336;2023-02-28T03:02:22;-1.60;99.90
12289;DHT22;6207;49.308;7.336;2023-02-28T03:04:58;-2.20;99.90
12289;DHT22;6207;49.308;7.336;2023-02-28T03:07:28;-2.10;99.90
12289;DHT22;6207;49.308;7.336;2023-02-28T03:09:56;-1.70;99.90
12289;DHT22;6207;49.308;7.336;2023-02-28T03:12:32;-2.20;99.90
12289;DHT22;6207;49.308;7.336;2023-02-28T03:20:44;-2.30;99.90
12289;DHT22;6207;49.308;7.336;2023-02-28T03:23:21;-1.90;99.90
12289;DHT22;6207;49.308;7.336;2023-02-28T03:26:01;-2.30;99.90
12289;DHT22;6207;49.308;7.336;2023-02-28T03:28:42;-2.20;99.90
12289;DHT22;6207;49.308;7.336;2023-02-28T03:31:21;-2.20;99.90
12289;DHT22;6207;49.308;7.336;2023-02-28T03:34:16;-2.30;99.90
12289;DHT22;6207;49.308;7.336;2023-02-28T03:36:48;-2.30;99.90
12289;DHT22;6207;49.308;7.336;2023-02-28T03:39:38;-2.40;99.90
12289;DHT22;6207;49.308;7.336;2023-02-28T03:42:15;-2.40;99.90
12289;DHT22;6207;49.308;7.336;2023-02-28T03:44:49;-2.40;99.90
12289;DHT22;6207;49.308;7.336;2023-02-28T03:47:37;-2.50;99.90
12289;DHT22;6207;49.308;7.336;2023-02-28T03:52:47;-2.50;99.90
12289;DHT22;6207;49.308;7.336;2023-02-28T03:55:17;-2.60;99.90
12289;DHT22;6207;49.308;7.336;2023-02-28T03:57:59;-2.20;99.90
12289;DHT22;6207;49.308;7.336;2023-02-28T04:00:31;-2.40;99.90
12289;DHT22;6207;49.308;7.336;2023-02-28T04:03:01;-2.40;99.90
12289;DHT22;6207;49.308;7.336;2023-02-28T04:05:29;-2.40;99.90
12289;DHT22;6207;49.308;7.336;2023-02-28T04:08:08;-2.40;99.90
12289;DHT22;6207;49.308;7.336;2023-02-28T04:10:34;-2.50;99.90
12289;DHT22;6207;49.308;7.336;2023-02-28T04:13:01;-2.40;99.90
12289;DHT22;6207;49.308;7.336;2023-02-28T04:15:27;-2.40;99.90
12289;DHT22;6207;49.308;7.336;2023-02-28T04:17:54;-2.30;99.90
12289;DHT22;6207;49.308;7.336;2023-02-28T04:20:21;-2.40;99.90
12289;DHT22;6207;49.308;7.336;2023-02-28T04:22:47;-2.60;99.90
12289;DHT22;6207;49.308;7.336;2023-02-28T04:25:14;-2.50;99.90
12289;DHT22;6207;49.308;7.336;2023-02-28T04:27:41;-2.50;99.90
12289;DHT22;6207;49.308;7.336;2023-02-28T04:30:08;-2.50;99.90
12289;DHT22;6207;49.308;7.336;2023-02-28T04:32:35;-2.40;99.90
12289;DHT22;6207;49.308;7.336;2023-02-28T04:35:02;-2.50;99.90
12289;DHT22;6207;49.308;7.336;2023-02-28T04:37:29;-2.50;99.90
12289;DHT22;6207;49.308;7.336;2023-02-28T04:39:55;-2.60;99.90
12289;DHT22;6207;49.308;7.336;2023-02-28T04:42:22;-2.60;99.90
12289;DHT22;6207;49.308;7.336;2023-02-28T04:44:49;-2.50;99.90
12289;DHT22;6207;49.308;7.336;2023-02-28T04:47:15;-2.70;99.90
12289;DHT22;6207;49.308;7.336;2023-02-28T04:49:42;-2.60;99.90
12289;DHT22;6207;49.308;7.336;2023-02-28T04:52:09;-2.50;99.90
12289;DHT22;6207;49.308;7.336;2023-02-28T04:54:36;-2.50;99.90
12289;DHT22;6207;49.308;7.336;2023-02-28T04:57:05;-2.40;99.90
12289;DHT22;6207;49.308;7.336;2023-02-28T04:59:32;-2.70;99.90
12289;DHT22;6207;49.308;7.336;2023-02-28T05:01:59;-2.60;99.90
12289;DHT22;6207;49.308;7.336;2023-02-28T05:04:26;-2.50;99.90
12289;DHT22;6207;49.308;7.336;2023-02-28T05:06:52;-2.60;99.90
12289;DHT22;6207;49.308;7.336;2023-02-28T05:09:19;-2.60;99.90
12289;DHT22;6207;49.308;7.336;2023-02-28T05:11:46;-2.70;99.90
12289;DHT22;6207;49.308;7.336;2023-02-28T05:14:13;-2.70;99.90
12289;DHT22;6207;49.308;7.336;2023-02-28T05:16:40;-2.70;99.90
12289;DHT22;6207;49.308;7.336;2023-02-28T05:19:07;-2.50;99.90
12289;DHT22;6207;49.308;7.336;2023-02-28T05:21:41;-2.60;99.90
12289;DHT22;6207;49.308;7.336;2023-02-28T05:24:14;-2.70;99.90
12289;DHT22;6207;49.308;7.336;2023-02-28T05:26:42;-2.80;99.90
12289;DHT22;6207;49.308;7.336;2023-02-28T05:29:09;-2.70;99.90
12289;DHT22;6207;49.308;7.336;2023-02-28T05:31:37;-2.70;99.90
12289;DHT22;6207;49.308;7.336;2023-02-28T05:34:04;-2.70;99.90
12289;DHT22;6207;49.308;7.336;2023-02-28T05:36:31;-2.70;99.90
12289;DHT22;6207;49.308;7.336;2023-02-28T05:38:57;-2.70;99.90
12289;DHT22;6207;49.308;7.336;2023-02-28T05:41:24;-2.20;99.90
12289;DHT22;6207;49.308;7.336;2023-02-28T05:43:52;-2.60;99.90
12289;DHT22;6207;49.308;7.336;2023-02-28T05:46:19;-2.60;99.90
12289;DHT22;6207;49.308;7.336;2023-02-28T05:48:47;-2.60;99.90
12289;DHT22;6207;49.308;7.336;2023-02-28T05:51:14;-2.70;99.90
12289;DHT22;6207;49.308;7.336;2023-02-28T05:53:41;-2.70;99.90
12289;DHT22;6207;49.308;7.336;2023-02-28T05:56:08;-2.70;99.90
12289;DHT22;6207;49.308;7.336;2023-02-28T05:58:35;-2.60;99.90
12289;DHT22;6207;49.308;7.336;2023-02-28T06:03:49;-2.80;99.90
12289;DHT22;6207;49.308;7.336;2023-02-28T06:06:16;-2.60;99.90
12289;DHT22;6207;49.308;7.336;2023-02-28T06:08:42;-2.60;99.90
12289;DHT22;6207;49.308;7.336;2023-02-28T06:11:11;-2.50;99.90
12289;DHT22;6207;49.308;7.336;2023-02-28T06:13:38;-2.60;99.90
12289;DHT22;6207;49.308;7.336;2023-02-28T06:16:05;-2.50;99.90
12289;DHT22;6207;49.308;7.336;2023-02-28T06:18:31;-2.50;99.90
12289;DHT22;6207;49.308;7.336;2023-02-28T06:20:58;-2.60;99.90
12289;DHT22;6207;49.308;7.336;2023-02-28T06:23:25;-2.20;99.90
12289;DHT22;6207;49.308;7.336;2023-02-28T06:25:51;-2.50;99.90
12289;DHT22;6207;49.308;7.336;2023-02-28T06:28:19;-2.50;99.90
12289;DHT22;6207;49.308;7.336;2023-02-28T06:30:46;-2.50;99.90
12289;DHT22;6207;49.308;7.336;2023-02-28T06:33:13;-2.50;99.90
12289;DHT22;6207;49.308;7.336;2023-02-28T06:35:40;-2.50;99.90
12289;DHT22;6207;49.308;7.336;2023-02-28T06:38:09;-2.40;99.90
12289;DHT22;6207;49.308;7.336;2023-02-28T06:40:37;-2.30;99.90
12289;DHT22;6207;49.308;7.336;2023-02-28T06:43:03;-2.30;99.90
12289;DHT22;6207;49.308;7.336;2023-02-28T06:45:30;-2.30;99.90
12289;DHT22;6207;49.308;7.336;2023-02-28T06:47:57;-2.30;99.90
12289;DHT22;6207;49.308;7.336;2023-02-28T06:50:24;-2.20;99.90
12289;DHT22;6207;49.308;7.336;2023-02-28T06:52:51;-2.20;99.90
12289;DHT22;6207;49.308;7.336;2023-02-28T06:55:20;-2.10;99.90
12289;DHT22;6207;49.308;7.336;2023-02-28T06:57:47;-2.00;99.90
12289;DHT22;6207;49.308;7.336;2023-02-28T07:00:14;-1.80;99.90
12289;DHT22;6207;49.308;7.336;2023-02-28T07:02:41;-1.80;99.90
12289;DHT22;6207;49.308;7.336;2023-02-28T07:05:08;-1.80;99.90
12289;DHT22;6207;49.308;7.336;2023-02-28T07:07:34;-1.80;99.90
12289;DHT22;6207;49.308;7.336;2023-02-28T07:10:03;-1.90;99.90
12289;DHT22;6207;49.308;7.336;2023-02-28T07:12:29;-1.90;99.90
12289;DHT22;6207;49.308;7.336;2023-02-28T07:14:56;-1.90;99.90
12289;DHT22;6207;49.308;7.336;2023-02-28T07:17:23;-1.90;99.90
12289;DHT22;6207;49.308;7.336;2023-02-28T07:19:50;-1.70;99.90
12289;DHT22;6207;49.308;7.336;2023-02-28T07:22:16;-0.50;99.90
12289;DHT22;6207;49.308;7.336;2023-02-28T07:24:43;0.00;99.90
12289;DHT22;6207;49.308;7.336;2023-02-28T07:27:10;-0.50;99.90
12289;DHT22;6207;49.308;7.336;2023-02-28T07:29:36;-0.30;99.90
12289;DHT22;6207;49.308;7.336;2023-02-28T07:32:04;-0.10;99.90
12289;DHT22;6207;49.308;7.336;2023-02-28T07:34:31;0.00;99.90
12289;DHT22;6207;49.308;7.336;2023-02-28T07:36:58;1.60;99.90
12289;DHT22;6207;49.308;7.336;2023-02-28T07:39:24;1.90;99.90
12289;DHT22;6207;49.308;7.336;2023-02-28T07:41:51;1.30;99.90
12289;DHT22;6207;49.308;7.336;2023-02-28T07:44:18;0.60;99.90
12289;DHT22;6207;49.308;7.336;2023-02-28T07:46:45;1.40;99.90
12289;DHT22;6207;49.308;7.336;2023-02-28T07:49:12;-0.10;99.90
12289;DHT22;6207;49.308;7.336;2023-02-28T07:51:38;-0.90;99.90
12289;DHT22;6207;49.308;7.336;2023-02-28T07:54:05;-1.20;99.90
12289;DHT22;6207;49.308;7.336;2023-02-28T07:56:32;-1.40;99.90
12289;DHT22;6207;49.308;7.336;2023-02-28T07:58:59;-1.40;99.90
12289;DHT22;6207;49.308;7.336;2023-02-28T08:01:25;-1.30;99.90
12289;DHT22;6207;49.308;7.336;2023-02-28T08:03:52;-1.30;99.90
12289;DHT22;6207;49.308;7.336;2023-02-28T08:06:23;-1.20;99.90
12289;DHT22;6207;49.308;7.336;2023-02-28T08:08:50;-1.20;99.90
12289;DHT22;6207;49.308;7.336;2023-02-28T08:11:18;-1.00;99.90
12289;DHT22;6207;49.308;7.336;2023-02-28T08:13:45;-1.20;99.90
12289;DHT22;6207;49.308;7.336;2023-02-28T08:16:12;-0.60;99.90
12289;DHT22;6207;49.308;7.336;2023-02-28T08:18:49;-1.00;99.90
12289;DHT22;6207;49.308;7.336;2023-02-28T08:21:17;-1.00;99.90
12289;DHT22;6207;49.308;7.336;2023-02-28T08:23:47;-1.00;99.90
12289;DHT22;6207;49.308;7.336;2023-02-28T08:26:16;-0.70;99.90
12289;DHT22;6207;49.308;7.336;2023-02-28T08:28:43;-0.70;99.90
12289;DHT22;6207;49.308;7.336;2023-02-28T08:31:13;-0.60;99.90
12289;DHT22;6207;49.308;7.336;2023-02-28T08:33:41;-0.40;99.90
12289;DHT22;6207;49.308;7.336;2023-02-28T08:36:08;-0.30;99.90
12289;DHT22;6207;49.308;7.336;2023-02-28T08:38:36;-0.10;99.90
12289;DHT22;6207;49.308;7.336;2023-02-28T08:41:06;-0.10;99.90
12289;DHT22;6207;49.308;7.336;2023-02-28T08:43:34;0.10;99.90
12289;DHT22;6207;49.308;7.336;2023-02-28T08:46:01;0.10;99.90
12289;DHT22;6207;49.308;7.336;2023-02-28T08:48:29;0.20;99.90
12289;DHT22;6207;49.308;7.336;2023-02-28T08:50:59;0.00;99.90
12289;DHT22;6207;49.308;7.336;2023-02-28T08:53:33;0.10;99.90
12289;DHT22;6207;49.308;7.336;2023-02-28T08:56:02;0.30;99.90
12289;DHT22;6207;49.308;7.336;2023-02-28T08:58:29;0.30;99.90
12289;DHT22;6207;49.308;7.336;2023-02-28T09:00:56;0.30;99.90
12289;DHT22;6207;49.308;7.336;2023-02-28T09:03:24;0.50;99.90
12289;DHT22;6207;49.308;7.336;2023-02-28T09:05:55;0.30;99.90
12289;DHT22;6207;49.308;7.336;2023-02-28T09:08:24;0.00;99.90
12289;DHT22;6207;49.308;7.336;2023-02-28T09:10:51;0.20;99.90
12289;DHT22;6207;49.308;7.336;2023-02-28T09:13:18;0.30;99.90
12289;DHT22;6207;49.308;7.336;2023-02-28T09:15:45;0.40;99.90
12289;DHT22;6207;49.308;7.336;2023-02-28T09:18:13;0.50;99.90
12289;DHT22;6207;49.308;7.336;2023-02-28T09:20:41;0.20;99.90
12289;DHT22;6207;49.308;7.336;2023-02-28T09:23:10;0.50;99.90
12289;DHT22;6207;49.308;7.336;2023-02-28T09:25:37;0.40;99.90
12289;DHT22;6207;49.308;7.336;2023-02-28T09:28:04;0.30;99.90
12289;DHT22;6207;49.308;7.336;2023-02-28T09:30:31;0.70;99.90
12289;DHT22;6207;49.308;7.336;2023-02-28T09:32:57;0.80;99.90
12289;DHT22;6207;49.308;7.336;2023-02-28T09:35:24;0.90;99.90
12289;DHT22;6207;49.308;7.336;2023-02-28T09:37:53;0.90;99.90
12289;DHT22;6207;49.308;7.336;2023-02-28T09:40:22;1.80;99.90
12289;DHT22;6207;49.308;7.336;2023-02-28T09:42:53;2.60;99.90
12289;DHT22;6207;49.308;7.336;2023-02-28T09:45:28;4.40;99.90
12289;DHT22;6207;49.308;7.336;2023-02-28T09:48:03;3.00;99.90
12289;DHT22;6207;49.308;7.336;2023-02-28T09:50:36;2.70;99.90
12289;DHT22;6207;49.308;7.336;2023-02-28T09:53:26;2.00;99.90
12289;DHT22;6207;49.308;7.336;2023-02-28T09:56:10;1.60;99.90
12289;DHT22;6207;49.308;7.336;2023-02-28T09:58:50;1.50;99.90
12289;DHT22;6207;49.308;7.336;2023-02-28T10:06:49;1.50;99.90
12289;DHT22;6207;49.308;7.336;2023-02-28T10:09:26;1.60;99.90
12289;DHT22;6207;49.308;7.336;2023-02-28T10:12:00;1.60;99.90
12289;DHT22;6207;49.308;7.336;2023-02-28T10:14:29;1.10;99.90
12289;DHT22;6207;49.308;7.336;2023-02-28T10:17:02;1.30;99.90
12289;DHT22;6207;49.308;7.336;2023-02-28T10:22:08;1.40;99.90
12289;DHT22;6207;49.308;7.336;2023-02-28T10:24:45;1.80;99.90
12289;DHT22;6207;49.308;7.336;2023-02-28T10:27:18;1.80;99.90
12289;DHT22;6207;49.308;7.336;2023-02-28T10:32:39;2.10;99.90
12289;DHT22;6207;49.308;7.336;2023-02-28T10:37:40;1.80;99.90
12289;DHT22;6207;49.308;7.336;2023-02-28T10:40:33;2.20;99.90
12289;DHT22;6207;49.308;7.336;2023-02-28T10:43:05;2.70;99.90
12289;DHT22;6207;49.308;7.336;2023-02-28T10:45:57;3.40;99.90
12289;DHT22;6207;49.308;7.336;2023-02-28T10:49:00;3.10;99.90
12289;DHT22;6207;49.308;7.336;2023-02-28T10:51:35;2.20;99.90
12289;DHT22;6207;49.308;7.336;2023-02-28T10:54:03;4.60;99.90
12289;DHT22;6207;49.308;7.336;2023-02-28T10:56:30;3.30;99.90
12289;DHT22;6207;49.308;7.336;2023-02-28T10:59:26;4.50;99.90
12289;DHT22;6207;49.308;7.336;2023-02-28T11:01:48;5.30;99.90
12289;DHT22;6207;49.308;7.336;2023-02-28T11:07:00;5.40;99.90
12289;DHT22;6207;49.308;7.336;2023-02-28T11:09:32;4.70;99.90
12289;DHT22;6207;49.308;7.336;2023-02-28T11:12:00;3.30;99.90
12289;DHT22;6207;49.308;7.336;2023-02-28T11:14:31;2.90;99.90
12289;DHT22;6207;49.308;7.336;2023-02-28T11:17:24;2.80;99.90
12289;DHT22;6207;49.308;7.336;2023-02-28T11:20:05;2.70;99.90
12289;DHT22;6207;49.308;7.336;2023-02-28T11:22:37;2.70;99.90
12289;DHT22;6207;49.308;7.336;2023-02-28T11:25:28;3.10;99.90
12289;DHT22;6207;49.308;7.336;2023-02-28T11:28:00;2.90;99.90
12289;DHT22;6207;49.308;7.336;2023-02-28T11:30:41;3.30;99.90
12289;DHT22;6207;49.308;7.336;2023-02-28T11:38:53;3.30;99.90
12289;DHT22;6207;49.308;7.336;2023-02-28T11:44:03;3.20;99.90
12289;DHT22;6207;49.308;7.336;2023-02-28T11:49:21;3.20;99.90
12289;DHT22;6207;49.308;7.336;2023-02-28T11:52:45;3.50;99.90
12289;DHT22;6207;49.308;7.336;2023-02-28T11:57:56;3.00;99.90
12289;DHT22;6207;49.308;7.336;2023-02-28T12:00:40;3.20;99.90
12289;DHT22;6207;49.308;7.336;2023-02-28T12:08:49;3.10;99.90
12289;DHT22;6207;49.308;7.336;2023-02-28T12:11:33;3.10;99.90
12289;DHT22;6207;49.308;7.336;2023-02-28T12:14:23;3.10;99.90
12289;DHT22;6207;49.308;7.336;2023-02-28T12:22:31;3.60;99.90
12289;DHT22;6207;49.308;7.336;2023-02-28T12:27:37;3.10;99.90
12289;DHT22;6207;49.308;7.336;2023-02-28T12:30:34;3.50;99.90
12289;DHT22;6207;49.308;7.336;2023-02-28T12:33:12;4.10;99.90
12289;DHT22;6207;49.308;7.336;2023-02-28T12:36:01;4.60;99.90
12289;DHT22;6207;49.308;7.336;2023-02-28T12:38:43;4.10;99.90
12289;DHT22;6207;49.308;7.336;2023-02-28T12:41:22;3.50;99.90
12289;DHT22;6207;49.308;7.336;2023-02-28T12:44:01;3.40;99.90
12289;DHT22;6207;49.308;7.336;2023-02-28T12:46:37;4.00;99.90
12289;DHT22;6207;49.308;7.336;2023-02-28T12:49:09;3.90;99.90
12289;DHT22;6207;49.308;7.336;2023-02-28T12:51:37;4.20;99.90
12289;DHT22;6207;49.308;7.336;2023-02-28T12:54:15;4.40;99.90
12289;DHT22;6207;49.308;7.336;2023-02-28T12:57:12;3.90;99.90
12289;DHT22;6207;49.308;7.336;2023-02-28T12:59:49;3.80;99.90
12289;DHT22;6207;49.308;7.336;2023-02-28T13:10:50;4.00;99.90
12289;DHT22;6207;49.308;7.336;2023-02-28T13:13:24;3.90;99.90
12289;DHT22;6207;49.308;7.336;2023-02-28T13:16:02;4.30;99.90
12289;DHT22;6207;49.308;7.336;2023-02-28T13:21:22;3.70;99.90
12289;DHT22;6207;49.308;7.336;2023-02-28T13:34:37;4.10;99.90
12289;DHT22;6207;49.308;7.336;2023-02-28T13:47:41;4.40;99.90
12289;DHT22;6207;49.308;7.336;2023-02-28T13:50:34;4.60;99.90
12289;DHT22;6207;49.308;7.336;2023-02-28T13:55:49;4.60;99.90
12289;DHT22;6207;49.308;7.336;2023-02-28T13:58:51;4.30;99.90
12289;DHT22;6207;49.308;7.336;2023-02-28T14:01:38;4.30;99.90
12289;DHT22;6207;49.308;7.336;2023-02-28T14:07:24;3.90;99.90
12289;DHT22;6207;49.308;7.336;2023-02-28T14:09:57;4.10;99.90
12289;DHT22;6207;49.308;7.336;2023-02-28T14:18:02;4.10;99.90
12289;DHT22;6207;49.308;7.336;2023-02-28T14:20:32;4.20;99.90
12289;DHT22;6207;49.308;7.336;2023-02-28T14:32:10;3.70;99.90
12289;DHT22;6207;49.308;7.336;2023-02-28T14:37:34;3.80;99.90
12289;DHT22;6207;49.308;7.336;2023-02-28T14:40:04;3.80;99.90
12289;DHT22;6207;49.308;7.336;2023-02-28T14:45:00;4.10;99.90
12289;DHT22;6207;49.308;7.336;2023-02-28T14:47:34;4.00;99.90
12289;DHT22;6207;49.308;7.336;2023-02-28T14:50:03;3.80;99.90
12289;DHT22;6207;49.308;7.336;2023-02-28T14:52:32;3.80;99.90
12289;DHT22;6207;49.308;7.336;2023-02-28T14:55:04;4.10;99.90
12289;DHT22;6207;49.308;7.336;2023-02-28T14:57:52;4.00;99.90
12289;DHT22;6207;49.308;7.336;2023-02-28T15:00:24;4.00;99.90
12289;DHT22;6207;49.308;7.336;2023-02-28T15:02:52;4.10;99.90
12289;DHT22;6207;49.308;7.336;2023-02-28T15:05:30;4.20;99.90
12289;DHT22;6207;49.308;7.336;2023-02-28T15:08:17;4.10;99.90
12289;DHT22;6207;49.308;7.336;2023-02-28T15:10:55;3.80;99.90
12289;DHT22;6207;49.308;7.336;2023-02-28T15:13:23;3.90;99.90
12289;DHT22;6207;49.308;7.336;2023-02-28T15:15:59;4.00;99.90
12289;DHT22;6207;49.308;7.336;2023-02-28T15:18:48;4.10;99.90
12289;DHT22;6207;49.308;7.336;2023-02-28T15:21:21;3.90;99.90
12289;DHT22;6207;49.308;7.336;2023-02-28T15:23:59;3.90;99.90
12289;DHT22;6207;49.308;7.336;2023-02-28T15:26:32;4.10;99.90
12289;DHT22;6207;49.308;7.336;2023-02-28T15:29:01;4.10;99.90
12289;DHT22;6207;49.308;7.336;2023-02-28T15:31:33;4.30;99.90
12289;DHT22;6207;49.308;7.336;2023-02-28T15:34:43;4.10;99.90
12289;DHT22;6207;49.308;7.336;2023-02-28T15:40:16;4.20;99.90
12289;DHT22;6207;49.308;7.336;2023-02-28T15:43:12;4.10;99.90
12289;DHT22;6207;49.308;7.336;2023-02-28T15:45:49;3.90;99.90
12289;DHT22;6207;49.308;7.336;2023-02-28T15:51:15;3.90;99.90
12289;DHT22;6207;49.308;7.336;2023-02-28T15:53:57;3.80;99.90
12289;DHT22;6207;49.308;7.336;2023-02-28T15:56:31;3.90;99.90
12289;DHT22;6207;49.308;7.336;2023-02-28T15:59:02;3.90;99.90
12289;DHT22;6207;49.308;7.336;2023-02-28T16:01:32;4.20;99.90
12289;DHT22;6207;49.308;7.336;2023-02-28T16:04:05;3.90;99.90
12289;DHT22;6207;49.308;7.336;2023-02-28T16:06:37;3.90;99.90
12289;DHT22;6207;49.308;7.336;2023-02-28T16:09:06;3.90;99.90
12289;DHT22;6207;49.308;7.336;2023-02-28T16:11:44;3.90;99.90
12289;DHT22;6207;49.308;7.336;2023-02-28T16:14:19;3.80;99.90
12289;DHT22;6207;49.308;7.336;2023-02-28T16:16:48;3.70;99.90
12289;DHT22;6207;49.308;7.336;2023-02-28T16:19:15;3.70;99.90
12289;DHT22;6207;49.308;7.336;2023-02-28T16:21:43;3.70;99.90
12289;DHT22;6207;49.308;7.336;2023-02-28T16:24:10;3.70;99.90
12289;DHT22;6207;49.308;7.336;2023-02-28T16:26:38;3.60;99.90
12289;DHT22;6207;49.308;7.336;2023-02-28T16:29:07;3.50;99.90
12289;DHT22;6207;49.308;7.336;2023-02-28T16:31:36;3.70;99.90
12289;DHT22;6207;49.308;7.336;2023-02-28T16:34:04;3.40;99.90
12289;DHT22;6207;49.308;7.336;2023-02-28T16:36:31;3.40;99.90
12289;DHT22;6207;49.308;7.336;2023-02-28T16:38:58;3.30;99.90
12289;DHT22;6207;49.308;7.336;2023-02-28T16:41:26;3.30;99.90
12289;DHT22;6207;49.308;7.336;2023-02-28T16:43:55;3.30;99.90
12289;DHT22;6207;49.308;7.336;2023-02-28T16:46:36;3.20;99.90
12289;DHT22;6207;49.308;7.336;2023-02-28T16:49:02;3.20;99.90
12289;DHT22;6207;49.308;7.336;2023-02-28T16:51:29;3.10;99.90
12289;DHT22;6207;49.308;7.336;2023-02-28T16:53:59;3.20;99.90
12289;DHT22;6207;49.308;7.336;2023-02-28T16:56:26;3.00;99.90
12289;DHT22;6207;49.308;7.336;2023-02-28T16:58:58;2.90;99.90
12289;DHT22;6207;49.308;7.336;2023-02-28T17:01:27;2.80;99.90
12289;DHT22;6207;49.308;7.336;2023-02-28T17:03:55;2.70;99.90
12289;DHT22;6207;49.308;7.336;2023-02-28T17:06:29;2.60;99.90
12289;DHT22;6207;49.308;7.336;2023-02-28T17:08:57;2.60;99.90
12289;DHT22;6207;49.308;7.336;2023-02-28T17:11:26;2.60;99.90
12289;DHT22;6207;49.308;7.336;2023-02-28T17:13:53;2.40;99.90
12289;DHT22;6207;49.308;7.336;2023-02-28T17:18:50;2.30;99.90
12289;DHT22;6207;49.308;7.336;2023-02-28T17:21:17;2.30;99.90
12289;DHT22;6207;49.308;7.336;2023-02-28T17:23:44;2.30;99.90
12289;DHT22;6207;49.308;7.336;2023-02-28T17:26:15;2.20;99.90
12289;DHT22;6207;49.308;7.336;2023-02-28T17:28:44;2.30;99.90
12289;DHT22;6207;49.308;7.336;2023-02-28T17:31:10;2.30;99.90
12289;DHT22;6207;49.308;7.336;2023-02-28T17:33:37;2.10;99.90
12289;DHT22;6207;49.308;7.336;2023-02-28T17:36:05;2.00;99.90
12289;DHT22;6207;49.308;7.336;2023-02-28T17:38:32;2.00;99.90
12289;DHT22;6207;49.308;7.336;2023-02-28T17:40:58;2.00;99.90
12289;DHT22;6207;49.308;7.336;2023-02-28T17:43:28;1.80;99.90
12289;DHT22;6207;49.308;7.336;2023-02-28T17:45:55;1.80;99.90
12289;DHT22;6207;49.308;7.336;2023-02-28T17:48:23;1.90;99.90
12289;DHT22;6207;49.308;7.336;2023-02-28T17:50:49;1.80;99.90
12289;DHT22;6207;49.308;7.336;2023-02-28T17:53:16;1.70;99.90
12289;DHT22;6207;49.308;7.336;2023-02-28T17:55:43;1.60;99.90
12289;DHT22;6207;49.308;7.336;2023-02-28T17:58:11;1.50;99.90
12289;DHT22;6207;49.308;7.336;2023-02-28T18:00:40;1.30;99.90
12289;DHT22;6207;49.308;7.336;2023-02-28T18:03:07;1.20;99.90
12289;DHT22;6207;49.308;7.336;2023-02-28T18:05:34;1.10;99.90
12289;DHT22;6207;49.308;7.336;2023-02-28T18:08:03;1.30;99.90
12289;DHT22;6207;49.308;7.336;2023-02-28T18:10:30;1.20;99.90
12289;DHT22;6207;49.308;7.336;2023-02-28T18:12:59;1.10;99.90
12289;DHT22;6207;49.308;7.336;2023-02-28T18:15:26;1.20;99.90
12289;DHT22;6207;49.308;7.336;2023-02-28T18:17:53;1.00;99.90
12289;DHT22;6207;49.308;7.336;2023-02-28T18:20:20;0.80;99.90
12289;DHT22;6207;49.308;7.336;2023-02-28T18:22:46;0.70;99.90
12289;DHT22;6207;49.308;7.336;2023-02-28T18:25:13;0.60;99.90
12289;DHT22;6207;49.308;7.336;2023-02-28T18:27:43;0.70;99.90
12289;DHT22;6207;49.308;7.336;2023-02-28T18:30:28;0.80;99.90
12289;DHT22;6207;49.308;7.336;2023-02-28T18:32:59;0.60;99.90
12289;DHT22;6207;49.308;7.336;2023-02-28T18:35:27;0.60;99.90
12289;DHT22;6207;49.308;7.336;2023-02-28T18:38:21;0.70;99.90